AAL4625 MDSD-KMIA
Flight info
| Callsign | AAL4625 |
|---|---|
| Flight time | 2h 4m |
| Altitude | 34000 |
| Route | MALVN2J MALVN Y261 MADIZ VIICE2 |
| Aircraft | A320/M-SDE3FGHIRWY/LB1 |
Departure
| Time | 2026-05-04 20:38 |
|---|---|
| Airport | Las Américas International Airport (MDSD) |
Arrival
| Time | 2026-05-04 22:43 |
|---|---|
| Airport | Miami International Airport (KMIA) |
| Time | Latitude | Longitude | Altitude | Speed | Heading |
|---|---|---|---|---|---|
| 2026-05-04 19:52 | 18.43040 | -69.67533 | 68 ft | 0 kts | 250° |
| 2026-05-04 20:27 | 18.43043 | -69.67522 | 60 ft | 4 kts | 259° |
| 2026-05-04 20:27 | 18.43042 | -69.67497 | 62 ft | 4 kts | 316° |
| 2026-05-04 20:28 | 18.43030 | -69.67491 | 61 ft | 0 kts | 9° |
| 2026-05-04 20:32 | 18.43031 | -69.67491 | 61 ft | 1 kts | 9° |
| 2026-05-04 20:32 | 18.43037 | -69.67485 | 59 ft | 0 kts | 51° |
| 2026-05-04 20:32 | 18.43038 | -69.67475 | 60 ft | 3 kts | 83° |
| 2026-05-04 20:33 | 18.43028 | -69.67440 | 58 ft | 7 kts | 123° |
| 2026-05-04 20:33 | 18.42989 | -69.67384 | 64 ft | 11 kts | 128° |
| 2026-05-04 20:33 | 18.42981 | -69.67373 | 61 ft | 1 kts | 128° |
| 2026-05-04 20:33 | 18.42975 | -69.67362 | 61 ft | 5 kts | 120° |
| 2026-05-04 20:34 | 18.42965 | -69.67295 | 62 ft | 13 kts | 96° |
| 2026-05-04 20:34 | 18.42955 | -69.67195 | 59 ft | 14 kts | 96° |
| 2026-05-04 20:34 | 18.42966 | -69.67113 | 66 ft | 10 kts | 47° |
| 2026-05-04 20:34 | 18.43039 | -69.67115 | 65 ft | 13 kts | 340° |
| 2026-05-04 20:35 | 18.43132 | -69.67151 | 62 ft | 15 kts | 340° |
| 2026-05-04 20:35 | 18.43236 | -69.67189 | 63 ft | 17 kts | 341° |
| 2026-05-04 20:35 | 18.43349 | -69.67231 | 64 ft | 18 kts | 340° |
| 2026-05-04 20:35 | 18.43476 | -69.67280 | 64 ft | 20 kts | 339° |
| 2026-05-04 20:36 | 18.43608 | -69.67329 | 69 ft | 20 kts | 340° |
| 2026-05-04 20:36 | 18.43744 | -69.67380 | 65 ft | 22 kts | 340° |
| 2026-05-04 20:36 | 18.43890 | -69.67435 | 68 ft | 23 kts | 341° |
| 2026-05-04 20:36 | 18.44047 | -69.67487 | 61 ft | 25 kts | 342° |
| 2026-05-04 20:37 | 18.44208 | -69.67540 | 69 ft | 20 kts | 342° |
| 2026-05-04 20:37 | 18.44305 | -69.67517 | 64 ft | 14 kts | 21° |
| 2026-05-04 20:37 | 18.44367 | -69.67440 | 65 ft | 15 kts | 84° |
| 2026-05-04 20:37 | 18.44320 | -69.67388 | 68 ft | 0 kts | 161° |
| 2026-05-04 20:38 | 18.44270 | -69.67369 | 66 ft | 33 kts | 160° |
| 2026-05-04 20:38 | 18.43770 | -69.67186 | 63 ft | 114 kts | 161° |
| 2026-05-04 20:38 | 18.42822 | -69.66849 | 84 ft | 171 kts | 163° |
| 2026-05-04 20:38 | 18.41656 | -69.66411 | 680 ft | 181 kts | 162° |
| 2026-05-04 20:39 | 18.40459 | -69.65922 | 1504 ft | 185 kts | 159° |
| 2026-05-04 20:39 | 18.39215 | -69.65457 | 2305 ft | 199 kts | 161° |
| 2026-05-04 20:39 | 18.37781 | -69.65160 | 2834 ft | 224 kts | 185° |
| 2026-05-04 20:39 | 18.36318 | -69.65836 | 3172 ft | 251 kts | 221° |
| 2026-05-04 20:40 | 18.35353 | -69.67437 | 3720 ft | 268 kts | 245° |
| 2026-05-04 20:40 | 18.34779 | -69.69335 | 4474 ft | 276 kts | 253° |
| 2026-05-04 20:40 | 18.34325 | -69.71332 | 4883 ft | 282 kts | 255° |
| 2026-05-04 20:40 | 18.33880 | -69.73353 | 4989 ft | 284 kts | 253° |
| 2026-05-04 20:41 | 18.33394 | -69.75370 | 5010 ft | 283 kts | 252° |
| 2026-05-04 20:41 | 18.33105 | -69.77392 | 5010 ft | 285 kts | 270° |
| 2026-05-04 20:41 | 18.33514 | -69.79442 | 5201 ft | 293 kts | 293° |
| 2026-05-04 20:41 | 18.34421 | -69.81371 | 6079 ft | 293 kts | 296° |
| 2026-05-04 20:42 | 18.35320 | -69.83310 | 6834 ft | 296 kts | 296° |
| 2026-05-04 20:42 | 18.36220 | -69.85278 | 7573 ft | 299 kts | 295° |
| 2026-05-04 20:42 | 18.37113 | -69.87243 | 8310 ft | 301 kts | 294° |
| 2026-05-04 20:42 | 18.38022 | -69.89241 | 9022 ft | 304 kts | 294° |
| 2026-05-04 20:43 | 18.38946 | -69.91262 | 9744 ft | 305 kts | 294° |
| 2026-05-04 20:43 | 18.39877 | -69.93288 | 10312 ft | 313 kts | 294° |
| 2026-05-04 20:43 | 18.40858 | -69.95427 | 10440 ft | 334 kts | 294° |
| 2026-05-04 20:43 | 18.41881 | -69.97662 | 10650 ft | 350 kts | 294° |
| 2026-05-04 20:44 | 18.42949 | -69.99992 | 11142 ft | 356 kts | 294° |
| 2026-05-04 20:44 | 18.44037 | -70.02357 | 11745 ft | 358 kts | 294° |
| 2026-05-04 20:44 | 18.45132 | -70.04730 | 12362 ft | 360 kts | 294° |
| 2026-05-04 20:44 | 18.46234 | -70.07119 | 12977 ft | 361 kts | 294° |
| 2026-05-04 20:45 | 18.47320 | -70.09481 | 13581 ft | 363 kts | 295° |
| 2026-05-04 20:45 | 18.48668 | -70.11748 | 14141 ft | 367 kts | 307° |
| 2026-05-04 20:45 | 18.50479 | -70.13666 | 14712 ft | 369 kts | 319° |
| 2026-05-04 20:45 | 18.52616 | -70.15112 | 15274 ft | 371 kts | 332° |
| 2026-05-04 20:46 | 18.54950 | -70.16306 | 15821 ft | 372 kts | 333° |
| 2026-05-04 20:46 | 18.57288 | -70.17498 | 16374 ft | 372 kts | 332° |
| 2026-05-04 20:46 | 18.59634 | -70.18697 | 16910 ft | 374 kts | 332° |
| 2026-05-04 20:46 | 18.61981 | -70.19897 | 17432 ft | 376 kts | 332° |
| 2026-05-04 20:47 | 18.64338 | -70.21102 | 17927 ft | 378 kts | 332° |
| 2026-05-04 20:47 | 18.66714 | -70.22318 | 18400 ft | 380 kts | 332° |
| 2026-05-04 20:47 | 18.69074 | -70.23526 | 18834 ft | 383 kts | 332° |
| 2026-05-04 20:47 | 18.71485 | -70.24760 | 19253 ft | 385 kts | 332° |
| 2026-05-04 20:48 | 18.73913 | -70.26003 | 19706 ft | 387 kts | 332° |
| 2026-05-04 20:48 | 18.76319 | -70.27235 | 20144 ft | 390 kts | 332° |
| 2026-05-04 20:48 | 18.78768 | -70.28492 | 20517 ft | 393 kts | 332° |
| 2026-05-04 20:48 | 18.81238 | -70.29760 | 20948 ft | 396 kts | 332° |
| 2026-05-04 20:49 | 18.83727 | -70.31037 | 21378 ft | 399 kts | 332° |
| 2026-05-04 20:49 | 18.86232 | -70.32322 | 21789 ft | 402 kts | 332° |
| 2026-05-04 20:49 | 18.88767 | -70.33621 | 22197 ft | 405 kts | 332° |
| 2026-05-04 20:49 | 18.91294 | -70.34917 | 22607 ft | 408 kts | 332° |
| 2026-05-04 20:50 | 18.93864 | -70.36238 | 23000 ft | 411 kts | 332° |
| 2026-05-04 20:50 | 18.96453 | -70.37568 | 23398 ft | 414 kts | 332° |
| 2026-05-04 20:50 | 18.99057 | -70.38902 | 23724 ft | 417 kts | 332° |
| 2026-05-04 20:50 | 19.01672 | -70.40243 | 24024 ft | 419 kts | 332° |
| 2026-05-04 20:51 | 19.04309 | -70.41599 | 24350 ft | 421 kts | 332° |
| 2026-05-04 20:51 | 19.06948 | -70.42957 | 24667 ft | 423 kts | 330° |
| 2026-05-04 20:51 | 19.09566 | -70.44304 | 24955 ft | 425 kts | 331° |
| 2026-05-04 20:51 | 19.12238 | -70.45679 | 25257 ft | 427 kts | 331° |
| 2026-05-04 20:52 | 19.14915 | -70.47057 | 25568 ft | 428 kts | 332° |
| 2026-05-04 20:52 | 19.17602 | -70.48442 | 25863 ft | 430 kts | 331° |
| 2026-05-04 20:52 | 19.20300 | -70.49834 | 26153 ft | 431 kts | 331° |
| 2026-05-04 20:52 | 19.23001 | -70.51228 | 26446 ft | 433 kts | 331° |
| 2026-05-04 20:53 | 19.25713 | -70.52627 | 26706 ft | 435 kts | 332° |
| 2026-05-04 20:53 | 19.28449 | -70.54037 | 26980 ft | 437 kts | 331° |
| 2026-05-04 20:53 | 19.31186 | -70.55448 | 27249 ft | 438 kts | 332° |
| 2026-05-04 20:53 | 19.33903 | -70.56851 | 27515 ft | 440 kts | 331° |
| 2026-05-04 20:54 | 19.36659 | -70.58276 | 27777 ft | 442 kts | 331° |
| 2026-05-04 20:54 | 19.39427 | -70.59711 | 28055 ft | 443 kts | 330° |
| 2026-05-04 20:54 | 19.42064 | -70.61408 | 28342 ft | 441 kts | 321° |
| 2026-05-04 20:54 | 19.43704 | -70.62681 | 28536 ft | 442 kts | 321° |
| 2026-05-04 20:55 | 19.46194 | -70.64616 | 28818 ft | 444 kts | 321° |
| 2026-05-04 20:55 | 19.49506 | -70.67190 | 29187 ft | 446 kts | 321° |
| 2026-05-04 20:55 | 19.52017 | -70.69142 | 29470 ft | 448 kts | 321° |
| 2026-05-04 20:55 | 19.53724 | -70.70466 | 29688 ft | 448 kts | 321° |
| 2026-05-04 20:56 | 19.56204 | -70.72386 | 30081 ft | 447 kts | 321° |
| 2026-05-04 20:56 | 19.58721 | -70.74336 | 30410 ft | 446 kts | 321° |
| 2026-05-04 20:56 | 19.61220 | -70.76275 | 30728 ft | 445 kts | 321° |
| 2026-05-04 20:56 | 19.63718 | -70.78219 | 31063 ft | 444 kts | 321° |
| 2026-05-04 20:57 | 19.66203 | -70.80155 | 31408 ft | 443 kts | 320° |
| 2026-05-04 20:57 | 19.68689 | -70.82094 | 31760 ft | 442 kts | 320° |
| 2026-05-04 20:57 | 19.71166 | -70.84024 | 32101 ft | 441 kts | 320° |
| 2026-05-04 20:57 | 19.73603 | -70.85924 | 32455 ft | 440 kts | 320° |
| 2026-05-04 20:58 | 19.76066 | -70.87844 | 32820 ft | 438 kts | 320° |
| 2026-05-04 20:58 | 19.78523 | -70.89758 | 33197 ft | 437 kts | 320° |
| 2026-05-04 20:58 | 19.80980 | -70.91671 | 33579 ft | 436 kts | 320° |
| 2026-05-04 20:58 | 19.83433 | -70.93583 | 33946 ft | 435 kts | 320° |
| 2026-05-04 20:59 | 19.85875 | -70.95487 | 34251 ft | 434 kts | 320° |
| 2026-05-04 20:59 | 19.88271 | -70.97357 | 34569 ft | 432 kts | 319° |
| 2026-05-04 20:59 | 19.90693 | -70.99254 | 34891 ft | 430 kts | 319° |
| 2026-05-04 20:59 | 19.93093 | -71.01131 | 35204 ft | 428 kts | 319° |
| 2026-05-04 21:00 | 19.95489 | -71.03007 | 35513 ft | 426 kts | 319° |
| 2026-05-04 21:00 | 19.97879 | -71.04878 | 35813 ft | 425 kts | 319° |
| 2026-05-04 21:00 | 20.00259 | -71.06744 | 35932 ft | 425 kts | 319° |
| 2026-05-04 21:00 | 20.02658 | -71.08624 | 35956 ft | 429 kts | 319° |
| 2026-05-04 21:01 | 20.07337 | -71.12289 | 35953 ft | 432 kts | 319° |
| 2026-05-04 21:01 | 20.12189 | -71.16086 | 35957 ft | 432 kts | 319° |
| 2026-05-04 21:02 | 20.17001 | -71.19864 | 35958 ft | 431 kts | 319° |
| 2026-05-04 21:02 | 20.21836 | -71.23666 | 35959 ft | 431 kts | 319° |
| 2026-05-04 21:03 | 20.26669 | -71.27467 | 35965 ft | 432 kts | 319° |
| 2026-05-04 21:03 | 20.31494 | -71.31253 | 35966 ft | 432 kts | 319° |
| 2026-05-04 21:04 | 20.36343 | -71.35061 | 35977 ft | 432 kts | 319° |
| 2026-05-04 21:04 | 20.41076 | -71.39003 | 35982 ft | 428 kts | 310° |
| 2026-05-04 21:05 | 20.44628 | -71.43984 | 35980 ft | 422 kts | 300° |
| 2026-05-04 21:05 | 20.47884 | -71.49160 | 35982 ft | 422 kts | 301° |
| 2026-05-04 21:06 | 20.51169 | -71.54357 | 35984 ft | 422 kts | 301° |
| 2026-05-04 21:06 | 20.54457 | -71.59571 | 35990 ft | 422 kts | 300° |
| 2026-05-04 21:07 | 20.57706 | -71.64752 | 35988 ft | 422 kts | 300° |
| 2026-05-04 21:07 | 20.60982 | -71.69973 | 35988 ft | 422 kts | 300° |
| 2026-05-04 21:08 | 20.64235 | -71.75161 | 35986 ft | 422 kts | 300° |
| 2026-05-04 21:08 | 20.67492 | -71.80358 | 35987 ft | 422 kts | 300° |
| 2026-05-04 21:09 | 20.70760 | -71.85575 | 35987 ft | 422 kts | 300° |
| 2026-05-04 21:09 | 20.74040 | -71.90817 | 35987 ft | 422 kts | 300° |
| 2026-05-04 21:10 | 20.77280 | -71.96009 | 35994 ft | 422 kts | 300° |
| 2026-05-04 21:10 | 20.80541 | -72.01233 | 35992 ft | 422 kts | 300° |
| 2026-05-04 21:11 | 20.83798 | -72.06458 | 36001 ft | 422 kts | 300° |
| 2026-05-04 21:11 | 20.87037 | -72.11653 | 35993 ft | 421 kts | 300° |
| 2026-05-04 21:12 | 20.90296 | -72.16881 | 35995 ft | 421 kts | 300° |
| 2026-05-04 21:12 | 20.93517 | -72.22071 | 35992 ft | 421 kts | 300° |
| 2026-05-04 21:13 | 20.96765 | -72.27301 | 35995 ft | 421 kts | 300° |
| 2026-05-04 21:13 | 21.00014 | -72.32517 | 35995 ft | 420 kts | 300° |
| 2026-05-04 21:14 | 21.03234 | -72.37706 | 35994 ft | 420 kts | 300° |
| 2026-05-04 21:14 | 21.06469 | -72.42926 | 35993 ft | 420 kts | 300° |
| 2026-05-04 21:15 | 21.09695 | -72.48144 | 35992 ft | 420 kts | 300° |
| 2026-05-04 21:15 | 21.12898 | -72.53330 | 35992 ft | 420 kts | 300° |
| 2026-05-04 21:16 | 21.16130 | -72.58562 | 35995 ft | 420 kts | 300° |
| 2026-05-04 21:16 | 21.19344 | -72.63777 | 35999 ft | 419 kts | 299° |
| 2026-05-04 21:17 | 21.22549 | -72.68975 | 36010 ft | 419 kts | 299° |
| 2026-05-04 21:17 | 21.25765 | -72.74189 | 36005 ft | 418 kts | 299° |
| 2026-05-04 21:18 | 21.28959 | -72.79355 | 36000 ft | 418 kts | 299° |
| 2026-05-04 21:18 | 21.32171 | -72.84583 | 35999 ft | 417 kts | 299° |
| 2026-05-04 21:19 | 21.35348 | -72.89754 | 35996 ft | 417 kts | 299° |
| 2026-05-04 21:19 | 21.38546 | -72.94971 | 35995 ft | 417 kts | 299° |
| 2026-05-04 21:20 | 21.41717 | -73.00138 | 36000 ft | 417 kts | 299° |
| 2026-05-04 21:20 | 21.44896 | -73.05334 | 36002 ft | 416 kts | 299° |
| 2026-05-04 21:21 | 21.48072 | -73.10537 | 35999 ft | 416 kts | 299° |
| 2026-05-04 21:21 | 21.51257 | -73.15750 | 35998 ft | 416 kts | 299° |
| 2026-05-04 21:22 | 21.54416 | -73.20919 | 35999 ft | 416 kts | 299° |
| 2026-05-04 21:22 | 21.57599 | -73.26132 | 35997 ft | 415 kts | 298° |
| 2026-05-04 21:23 | 21.60751 | -73.31308 | 36023 ft | 415 kts | 298° |
| 2026-05-04 21:23 | 21.63920 | -73.36494 | 36021 ft | 414 kts | 298° |
| 2026-05-04 21:24 | 21.67070 | -73.41670 | 36008 ft | 413 kts | 298° |
| 2026-05-04 21:24 | 21.70194 | -73.46819 | 36012 ft | 413 kts | 298° |
| 2026-05-04 21:25 | 21.73327 | -73.51988 | 36005 ft | 412 kts | 298° |
| 2026-05-04 21:25 | 21.76467 | -73.57160 | 35998 ft | 412 kts | 298° |
| 2026-05-04 21:26 | 21.79594 | -73.62305 | 36003 ft | 412 kts | 298° |
| 2026-05-04 21:26 | 21.82730 | -73.67471 | 36001 ft | 412 kts | 298° |
| 2026-05-04 21:27 | 21.85861 | -73.72633 | 36005 ft | 411 kts | 298° |
| 2026-05-04 21:27 | 21.88980 | -73.77802 | 36004 ft | 410 kts | 298° |
| 2026-05-04 21:28 | 21.92074 | -73.82933 | 36003 ft | 410 kts | 298° |
| 2026-05-04 21:28 | 21.95168 | -73.88071 | 36004 ft | 410 kts | 298° |
| 2026-05-04 21:29 | 21.98278 | -73.93232 | 36020 ft | 410 kts | 298° |
| 2026-05-04 21:29 | 22.01374 | -73.98373 | 36007 ft | 409 kts | 298° |
| 2026-05-04 21:30 | 22.04479 | -74.03526 | 36013 ft | 409 kts | 298° |
| 2026-05-04 21:30 | 22.07578 | -74.08682 | 36008 ft | 408 kts | 298° |
| 2026-05-04 21:31 | 22.12188 | -74.16362 | 36003 ft | 408 kts | 298° |
| 2026-05-04 21:32 | 22.15280 | -74.21513 | 36002 ft | 408 kts | 297° |
| 2026-05-04 21:32 | 22.18360 | -74.26658 | 36001 ft | 408 kts | 298° |
| 2026-05-04 21:33 | 22.21462 | -74.31794 | 36004 ft | 408 kts | 298° |
| 2026-05-04 21:33 | 22.24578 | -74.36908 | 36006 ft | 407 kts | 297° |
| 2026-05-04 21:34 | 22.27622 | -74.42025 | 36004 ft | 407 kts | 297° |
| 2026-05-04 21:34 | 22.30679 | -74.47173 | 36001 ft | 407 kts | 297° |
| 2026-05-04 21:35 | 22.33753 | -74.52333 | 36000 ft | 407 kts | 297° |
| 2026-05-04 21:35 | 22.36802 | -74.57458 | 36021 ft | 407 kts | 297° |
| 2026-05-04 21:36 | 22.39875 | -74.62620 | 36013 ft | 407 kts | 297° |
| 2026-05-04 21:36 | 22.42919 | -74.67747 | 36008 ft | 407 kts | 297° |
| 2026-05-04 21:37 | 22.45978 | -74.72900 | 36002 ft | 407 kts | 297° |
| 2026-05-04 21:37 | 22.49023 | -74.78032 | 36001 ft | 407 kts | 297° |
| 2026-05-04 21:38 | 22.52083 | -74.83196 | 36002 ft | 407 kts | 297° |
| 2026-05-04 21:38 | 22.55118 | -74.88323 | 36001 ft | 407 kts | 297° |
| 2026-05-04 21:39 | 22.58172 | -74.93487 | 36000 ft | 406 kts | 297° |
| 2026-05-04 21:39 | 22.61204 | -74.98636 | 36000 ft | 406 kts | 297° |
| 2026-05-04 21:40 | 22.64256 | -75.03794 | 36000 ft | 407 kts | 297° |
| 2026-05-04 21:40 | 22.67307 | -75.08949 | 36007 ft | 406 kts | 297° |
| 2026-05-04 21:41 | 22.70346 | -75.14111 | 36006 ft | 406 kts | 297° |
| 2026-05-04 21:41 | 22.73366 | -75.19240 | 36030 ft | 406 kts | 297° |
| 2026-05-04 21:42 | 22.76401 | -75.24402 | 36015 ft | 405 kts | 297° |
| 2026-05-04 21:42 | 22.79409 | -75.29533 | 36010 ft | 404 kts | 297° |
| 2026-05-04 21:43 | 22.82425 | -75.34682 | 36006 ft | 404 kts | 297° |
| 2026-05-04 21:43 | 22.84934 | -75.38959 | 36004 ft | 404 kts | 297° |
| 2026-05-04 21:44 | 22.87959 | -75.44115 | 36011 ft | 403 kts | 297° |
| 2026-05-04 21:44 | 22.90950 | -75.49225 | 36007 ft | 403 kts | 297° |
| 2026-05-04 21:45 | 22.93960 | -75.54382 | 36005 ft | 403 kts | 297° |
| 2026-05-04 21:45 | 22.96960 | -75.59518 | 36003 ft | 403 kts | 297° |
| 2026-05-04 21:46 | 22.99941 | -75.64627 | 36002 ft | 403 kts | 297° |
| 2026-05-04 21:46 | 23.02937 | -75.69769 | 36001 ft | 403 kts | 297° |
| 2026-05-04 21:47 | 23.05932 | -75.74918 | 36003 ft | 403 kts | 297° |
| 2026-05-04 21:47 | 23.08918 | -75.80045 | 36010 ft | 403 kts | 297° |
| 2026-05-04 21:48 | 23.11904 | -75.85187 | 36026 ft | 402 kts | 297° |
| 2026-05-04 21:48 | 23.14885 | -75.90315 | 36016 ft | 401 kts | 297° |
| 2026-05-04 21:49 | 23.17858 | -75.95448 | 36007 ft | 401 kts | 296° |
| 2026-05-04 21:49 | 23.20832 | -76.00585 | 36005 ft | 400 kts | 296° |
| 2026-05-04 21:50 | 23.23786 | -76.05686 | 36005 ft | 400 kts | 296° |
| 2026-05-04 21:50 | 23.26752 | -76.10817 | 36004 ft | 400 kts | 296° |
| 2026-05-04 21:51 | 23.29712 | -76.15949 | 36018 ft | 400 kts | 296° |
| 2026-05-04 21:51 | 23.32675 | -76.21079 | 36012 ft | 400 kts | 296° |
| 2026-05-04 21:52 | 23.35616 | -76.26167 | 36002 ft | 399 kts | 296° |
| 2026-05-04 21:52 | 23.38566 | -76.31312 | 36000 ft | 399 kts | 296° |
| 2026-05-04 21:53 | 23.41493 | -76.36414 | 36000 ft | 399 kts | 296° |
| 2026-05-04 21:53 | 23.44453 | -76.41553 | 35999 ft | 399 kts | 296° |
| 2026-05-04 21:54 | 23.47402 | -76.46686 | 36029 ft | 399 kts | 296° |
| 2026-05-04 21:54 | 23.50322 | -76.51772 | 36009 ft | 396 kts | 296° |
| 2026-05-04 21:55 | 23.53240 | -76.56870 | 36002 ft | 395 kts | 296° |
| 2026-05-04 21:55 | 23.56154 | -76.61958 | 36001 ft | 395 kts | 296° |
| 2026-05-04 21:56 | 23.59049 | -76.67020 | 35997 ft | 395 kts | 296° |
| 2026-05-04 21:56 | 23.61954 | -76.72105 | 35999 ft | 395 kts | 296° |
| 2026-05-04 21:57 | 23.64852 | -76.77199 | 35993 ft | 395 kts | 295° |
| 2026-05-04 21:57 | 23.67736 | -76.82264 | 36000 ft | 395 kts | 296° |
| 2026-05-04 21:58 | 23.70636 | -76.87353 | 36007 ft | 394 kts | 295° |
| 2026-05-04 21:58 | 23.73538 | -76.92445 | 36004 ft | 394 kts | 295° |
| 2026-05-04 21:59 | 23.76437 | -76.97541 | 36000 ft | 394 kts | 295° |
| 2026-05-04 21:59 | 23.79314 | -77.02605 | 36000 ft | 394 kts | 295° |
| 2026-05-04 22:00 | 23.82203 | -77.07711 | 35998 ft | 394 kts | 295° |
| 2026-05-04 22:00 | 23.85068 | -77.12778 | 36016 ft | 394 kts | 295° |
| 2026-05-04 22:01 | 23.87957 | -77.17870 | 36004 ft | 394 kts | 295° |
| 2026-05-04 22:01 | 23.90839 | -77.22983 | 36001 ft | 394 kts | 295° |
| 2026-05-04 22:02 | 23.93700 | -77.28062 | 35993 ft | 394 kts | 295° |
| 2026-05-04 22:02 | 23.96590 | -77.33181 | 35990 ft | 395 kts | 295° |
| 2026-05-04 22:03 | 23.99488 | -77.38298 | 35989 ft | 395 kts | 295° |
| 2026-05-04 22:03 | 24.02375 | -77.43418 | 35988 ft | 395 kts | 295° |
| 2026-05-04 22:04 | 24.05235 | -77.48515 | 35989 ft | 395 kts | 295° |
| 2026-05-04 22:04 | 24.08120 | -77.53646 | 35989 ft | 395 kts | 295° |
| 2026-05-04 22:05 | 24.11003 | -77.58786 | 35991 ft | 395 kts | 295° |
| 2026-05-04 22:05 | 24.13880 | -77.63930 | 35990 ft | 396 kts | 295° |
| 2026-05-04 22:06 | 24.16744 | -77.69052 | 35985 ft | 396 kts | 295° |
| 2026-05-04 22:06 | 24.19633 | -77.74210 | 35985 ft | 397 kts | 295° |
| 2026-05-04 22:07 | 24.22526 | -77.79381 | 35986 ft | 397 kts | 295° |
| 2026-05-04 22:07 | 24.25391 | -77.84509 | 35985 ft | 397 kts | 295° |
| 2026-05-04 22:08 | 24.28311 | -77.89665 | 35988 ft | 398 kts | 296° |
| 2026-05-04 22:08 | 24.31421 | -77.94721 | 35989 ft | 400 kts | 297° |
| 2026-05-04 22:09 | 24.34578 | -77.99744 | 35988 ft | 400 kts | 297° |
| 2026-05-04 22:09 | 24.37688 | -78.04755 | 35991 ft | 400 kts | 297° |
| 2026-05-04 22:10 | 24.40802 | -78.09818 | 35987 ft | 400 kts | 297° |
| 2026-05-04 22:10 | 24.43907 | -78.14891 | 35987 ft | 400 kts | 297° |
| 2026-05-04 22:11 | 24.47014 | -78.19963 | 35986 ft | 400 kts | 297° |
| 2026-05-04 22:11 | 24.50096 | -78.25008 | 35986 ft | 400 kts | 297° |
| 2026-05-04 22:12 | 24.53196 | -78.30085 | 35995 ft | 400 kts | 297° |
| 2026-05-04 22:12 | 24.56310 | -78.35182 | 36022 ft | 400 kts | 297° |
| 2026-05-04 22:13 | 24.59397 | -78.40229 | 35983 ft | 399 kts | 297° |
| 2026-05-04 22:13 | 24.62495 | -78.45317 | 35981 ft | 400 kts | 297° |
| 2026-05-04 22:14 | 24.65591 | -78.50403 | 35982 ft | 400 kts | 297° |
| 2026-05-04 22:14 | 24.68689 | -78.55499 | 35985 ft | 401 kts | 297° |
| 2026-05-04 22:15 | 24.71772 | -78.60580 | 35986 ft | 401 kts | 297° |
| 2026-05-04 22:15 | 24.74869 | -78.65696 | 35987 ft | 401 kts | 297° |
| 2026-05-04 22:15 | 24.76393 | -78.68213 | 35876 ft | 406 kts | 297° |
| 2026-05-04 22:16 | 24.77959 | -78.70803 | 35632 ft | 409 kts | 297° |
| 2026-05-04 22:16 | 24.79536 | -78.73410 | 35392 ft | 409 kts | 297° |
| 2026-05-04 22:16 | 24.81117 | -78.76022 | 35154 ft | 409 kts | 297° |
| 2026-05-04 22:16 | 24.82697 | -78.78629 | 34918 ft | 409 kts | 297° |
| 2026-05-04 22:17 | 24.84273 | -78.81228 | 34682 ft | 408 kts | 297° |
| 2026-05-04 22:17 | 24.85848 | -78.83831 | 34448 ft | 407 kts | 297° |
| 2026-05-04 22:17 | 24.87414 | -78.86421 | 33996 ft | 405 kts | 297° |
| 2026-05-04 22:17 | 24.88971 | -78.89000 | 33420 ft | 403 kts | 297° |
| 2026-05-04 22:18 | 24.90519 | -78.91569 | 32896 ft | 401 kts | 298° |
| 2026-05-04 22:18 | 24.92061 | -78.94129 | 32379 ft | 398 kts | 298° |
| 2026-05-04 22:18 | 24.93574 | -78.96640 | 31821 ft | 397 kts | 298° |
| 2026-05-04 22:18 | 24.95101 | -78.99171 | 31284 ft | 395 kts | 298° |
| 2026-05-04 22:19 | 24.96624 | -79.01702 | 30739 ft | 392 kts | 298° |
| 2026-05-04 22:19 | 24.98112 | -79.04177 | 30226 ft | 390 kts | 299° |
| 2026-05-04 22:19 | 24.99605 | -79.06665 | 29651 ft | 388 kts | 299° |
| 2026-05-04 22:19 | 25.01086 | -79.09133 | 29133 ft | 384 kts | 299° |
| 2026-05-04 22:20 | 25.02554 | -79.11576 | 28624 ft | 380 kts | 299° |
| 2026-05-04 22:20 | 25.04015 | -79.14010 | 28142 ft | 376 kts | 299° |
| 2026-05-04 22:20 | 25.05430 | -79.16365 | 27963 ft | 367 kts | 299° |
| 2026-05-04 22:20 | 25.06835 | -79.18704 | 27996 ft | 364 kts | 299° |
| 2026-05-04 22:21 | 25.08238 | -79.21044 | 27993 ft | 364 kts | 298° |
| 2026-05-04 22:21 | 25.09632 | -79.23377 | 27998 ft | 364 kts | 298° |
| 2026-05-04 22:21 | 25.11011 | -79.25686 | 27996 ft | 364 kts | 298° |
| 2026-05-04 22:21 | 25.12410 | -79.28024 | 27997 ft | 364 kts | 298° |
| 2026-05-04 22:22 | 25.13807 | -79.30356 | 28000 ft | 364 kts | 299° |
| 2026-05-04 22:22 | 25.15171 | -79.32633 | 27989 ft | 364 kts | 299° |
| 2026-05-04 22:22 | 25.16549 | -79.34933 | 27994 ft | 364 kts | 298° |
| 2026-05-04 22:22 | 25.17945 | -79.37269 | 27962 ft | 363 kts | 298° |
| 2026-05-04 22:23 | 25.19338 | -79.39607 | 26991 ft | 366 kts | 299° |
| 2026-05-04 22:23 | 25.20753 | -79.41986 | 25870 ft | 371 kts | 299° |
| 2026-05-04 22:23 | 25.22149 | -79.44322 | 25335 ft | 359 kts | 299° |
| 2026-05-04 22:23 | 25.23516 | -79.46606 | 24756 ft | 355 kts | 299° |
| 2026-05-04 22:24 | 25.24872 | -79.48879 | 24425 ft | 352 kts | 299° |
| 2026-05-04 22:24 | 25.26192 | -79.51099 | 24057 ft | 350 kts | 299° |
| 2026-05-04 22:24 | 25.27529 | -79.53346 | 23688 ft | 348 kts | 298° |
| 2026-05-04 22:24 | 25.28859 | -79.55582 | 23235 ft | 347 kts | 298° |
| 2026-05-04 22:25 | 25.30187 | -79.57817 | 22779 ft | 345 kts | 298° |
| 2026-05-04 22:25 | 25.31499 | -79.60025 | 22331 ft | 343 kts | 298° |
| 2026-05-04 22:25 | 25.32806 | -79.62220 | 21882 ft | 340 kts | 298° |
| 2026-05-04 22:25 | 25.34085 | -79.64371 | 21442 ft | 338 kts | 298° |
| 2026-05-04 22:26 | 25.35378 | -79.66547 | 20992 ft | 336 kts | 298° |
| 2026-05-04 22:26 | 25.36653 | -79.68698 | 20557 ft | 333 kts | 298° |
| 2026-05-04 22:26 | 25.37492 | -79.70113 | 20278 ft | 332 kts | 298° |
| 2026-05-04 22:26 | 25.37886 | -79.70779 | 20132 ft | 331 kts | 298° |
| 2026-05-04 22:27 | 25.39105 | -79.72808 | 19724 ft | 330 kts | 299° |
| 2026-05-04 22:27 | 25.40403 | -79.74896 | 19307 ft | 328 kts | 300° |
| 2026-05-04 22:27 | 25.41710 | -79.76934 | 18897 ft | 327 kts | 300° |
| 2026-05-04 22:27 | 25.43034 | -79.78972 | 18488 ft | 325 kts | 300° |
| 2026-05-04 22:28 | 25.44351 | -79.80998 | 18067 ft | 323 kts | 300° |
| 2026-05-04 22:28 | 25.45658 | -79.83018 | 17613 ft | 321 kts | 300° |
| 2026-05-04 22:28 | 25.46948 | -79.85019 | 17172 ft | 319 kts | 300° |
| 2026-05-04 22:28 | 25.47801 | -79.86343 | 16883 ft | 317 kts | 300° |
| 2026-05-04 22:29 | 25.49495 | -79.88980 | 16318 ft | 315 kts | 300° |
| 2026-05-04 22:29 | 25.50334 | -79.90289 | 16038 ft | 313 kts | 300° |
| 2026-05-04 22:29 | 25.51598 | -79.92260 | 15619 ft | 312 kts | 300° |
| 2026-05-04 22:29 | 25.52850 | -79.94216 | 15214 ft | 310 kts | 301° |
| 2026-05-04 22:30 | 25.54090 | -79.96154 | 14813 ft | 308 kts | 301° |
| 2026-05-04 22:30 | 25.55325 | -79.98088 | 14418 ft | 306 kts | 301° |
| 2026-05-04 22:30 | 25.56540 | -79.99992 | 14031 ft | 305 kts | 301° |
| 2026-05-04 22:30 | 25.57748 | -80.01885 | 13877 ft | 295 kts | 301° |
| 2026-05-04 22:31 | 25.58919 | -80.03715 | 13620 ft | 289 kts | 301° |
| 2026-05-04 22:31 | 25.60081 | -80.05532 | 13252 ft | 287 kts | 301° |
| 2026-05-04 22:31 | 25.61225 | -80.07326 | 12990 ft | 282 kts | 301° |
| 2026-05-04 22:31 | 25.62356 | -80.09101 | 12578 ft | 283 kts | 301° |
| 2026-05-04 22:32 | 25.63495 | -80.10894 | 12076 ft | 286 kts | 301° |
| 2026-05-04 22:32 | 25.64635 | -80.12689 | 11595 ft | 289 kts | 301° |
| 2026-05-04 22:32 | 25.65688 | -80.14543 | 11106 ft | 278 kts | 292° |
| 2026-05-04 22:32 | 25.66506 | -80.16464 | 10631 ft | 273 kts | 292° |
| 2026-05-04 22:33 | 25.67312 | -80.18362 | 10088 ft | 273 kts | 292° |
| 2026-05-04 22:33 | 25.68124 | -80.20274 | 9475 ft | 275 kts | 292° |
| 2026-05-04 22:33 | 25.68941 | -80.22197 | 8823 ft | 284 kts | 293° |
| 2026-05-04 22:33 | 25.69790 | -80.24194 | 8070 ft | 286 kts | 293° |
| 2026-05-04 22:34 | 25.70633 | -80.26195 | 7331 ft | 285 kts | 291° |
| 2026-05-04 22:34 | 25.71138 | -80.28306 | 6623 ft | 283 kts | 275° |
| 2026-05-04 22:34 | 25.71117 | -80.30472 | 6073 ft | 275 kts | 266° |
| 2026-05-04 22:34 | 25.71006 | -80.32536 | 5879 ft | 266 kts | 267° |
| 2026-05-04 22:35 | 25.70905 | -80.34638 | 4864 ft | 280 kts | 268° |
| 2026-05-04 22:35 | 25.70826 | -80.36842 | 3779 ft | 295 kts | 269° |
| 2026-05-04 22:35 | 25.70741 | -80.39112 | 3247 ft | 290 kts | 268° |
| 2026-05-04 22:35 | 25.70630 | -80.41258 | 3069 ft | 276 kts | 268° |
| 2026-05-04 22:36 | 25.70493 | -80.43366 | 2974 ft | 278 kts | 267° |
| 2026-05-04 22:36 | 25.70331 | -80.45500 | 2977 ft | 278 kts | 267° |
| 2026-05-04 22:36 | 25.70160 | -80.47626 | 2975 ft | 275 kts | 268° |
| 2026-05-04 22:36 | 25.70022 | -80.49757 | 2970 ft | 277 kts | 274° |
| 2026-05-04 22:37 | 25.70500 | -80.51763 | 2973 ft | 260 kts | 304° |
| 2026-05-04 22:37 | 25.71639 | -80.53088 | 2971 ft | 226 kts | 336° |
| 2026-05-04 22:37 | 25.73103 | -80.53642 | 2988 ft | 220 kts | 352° |
| 2026-05-04 22:37 | 25.74612 | -80.53978 | 2985 ft | 225 kts | 352° |
| 2026-05-04 22:38 | 25.76134 | -80.53949 | 2977 ft | 216 kts | 21° |
| 2026-05-04 22:38 | 25.77321 | -80.53009 | 2986 ft | 211 kts | 54° |
| 2026-05-04 22:38 | 25.77776 | -80.51499 | 2990 ft | 213 kts | 84° |
| 2026-05-04 22:38 | 25.77844 | -80.49849 | 2982 ft | 214 kts | 84° |
| 2026-05-04 22:39 | 25.77901 | -80.48216 | 2899 ft | 208 kts | 84° |
| 2026-05-04 22:39 | 25.77965 | -80.46655 | 2681 ft | 197 kts | 86° |
| 2026-05-04 22:39 | 25.78029 | -80.45155 | 2464 ft | 188 kts | 85° |
| 2026-05-04 22:39 | 25.78090 | -80.43730 | 2212 ft | 181 kts | 85° |
| 2026-05-04 22:40 | 25.78146 | -80.42402 | 1977 ft | 168 kts | 83° |
| 2026-05-04 22:40 | 25.78198 | -80.41173 | 1787 ft | 149 kts | 83° |
| 2026-05-04 22:40 | 25.78245 | -80.40071 | 1590 ft | 139 kts | 85° |
| 2026-05-04 22:40 | 25.78290 | -80.39018 | 1409 ft | 135 kts | 83° |
| 2026-05-04 22:41 | 25.78335 | -80.37979 | 1234 ft | 133 kts | 84° |
| 2026-05-04 22:41 | 25.78378 | -80.36966 | 1065 ft | 132 kts | 86° |
| 2026-05-04 22:41 | 25.78421 | -80.35940 | 891 ft | 136 kts | 86° |
| 2026-05-04 22:41 | 25.78466 | -80.34892 | 721 ft | 134 kts | 86° |
| 2026-05-04 22:42 | 25.78515 | -80.33839 | 517 ft | 137 kts | 85° |
| 2026-05-04 22:42 | 25.78561 | -80.32793 | 385 ft | 134 kts | 88° |
| 2026-05-04 22:42 | 25.78598 | -80.31754 | 163 ft | 132 kts | 86° |
| 2026-05-04 22:42 | 25.78641 | -80.30745 | 29 ft | 125 kts | 86° |
| 2026-05-04 22:43 | 25.78675 | -80.29959 | 14 ft | 65 kts | 87° |
| 2026-05-04 22:43 | 25.78687 | -80.29663 | 15 ft | 33 kts | 88° |
| 2026-05-04 22:43 | 25.78696 | -80.29411 | 14 ft | 32 kts | 87° |
| 2026-05-04 22:43 | 25.78708 | -80.29173 | 16 ft | 30 kts | 87° |
| 2026-05-04 22:44 | 25.78717 | -80.28944 | 14 ft | 30 kts | 88° |
| 2026-05-04 22:44 | 25.78728 | -80.28719 | 16 ft | 28 kts | 86° |
| 2026-05-04 22:44 | 25.78764 | -80.28512 | 15 ft | 27 kts | 62° |
| 2026-05-04 22:44 | 25.78851 | -80.28391 | 16 ft | 15 kts | 50° |
| 2026-05-04 22:45 | 25.78887 | -80.28283 | 15 ft | 16 kts | 90° |
| 2026-05-04 22:45 | 25.78910 | -80.28022 | 17 ft | 14 kts | 75° |
| 2026-05-04 22:45 | 25.78973 | -80.27991 | 16 ft | 6 kts | 308° |
| 2026-05-04 22:46 | 25.79001 | -80.28053 | 16 ft | 13 kts | 302° |
| 2026-05-04 22:46 | 25.79058 | -80.28166 | 16 ft | 20 kts | 298° |
| 2026-05-04 22:46 | 25.79131 | -80.28301 | 15 ft | 21 kts | 302° |
| 2026-05-04 22:46 | 25.79224 | -80.28428 | 17 ft | 22 kts | 311° |
| 2026-05-04 22:47 | 25.79303 | -80.28580 | 15 ft | 24 kts | 299° |
| 2026-05-04 22:47 | 25.79388 | -80.28742 | 15 ft | 25 kts | 301° |
| 2026-05-04 22:47 | 25.79528 | -80.28798 | 16 ft | 20 kts | 352° |
| 2026-05-04 22:47 | 25.79675 | -80.28817 | 15 ft | 22 kts | 358° |
| 2026-05-04 22:48 | 25.79827 | -80.28822 | 15 ft | 19 kts | 356° |
| 2026-05-04 22:48 | 25.79932 | -80.28781 | 15 ft | 16 kts | 75° |
| 2026-05-04 22:48 | 25.79938 | -80.28656 | 15 ft | 17 kts | 88° |
| 2026-05-04 22:48 | 25.79945 | -80.28520 | 15 ft | 18 kts | 87° |
| 2026-05-04 22:49 | 25.79949 | -80.28435 | 15 ft | 6 kts | 87° |
| 2026-05-04 22:49 | 25.79945 | -80.28426 | 15 ft | 3 kts | 120° |
| 2026-05-04 22:49 | 25.79912 | -80.28418 | 15 ft | 5 kts | 183° |
| 2026-05-04 22:49 | 25.79870 | -80.28418 | 15 ft | 7 kts | 176° |
| 2026-05-04 22:50 | 25.79832 | -80.28415 | 15 ft | 3 kts | 176° |
| 2026-05-04 22:50 | 25.79820 | -80.28415 | 15 ft | 0 kts | 176° |